Tuesday, October 23, 2018, 9:45 PM EDT
Back to Local

KSFZ, Pawtucket, North Central State Airport

Location: Smithfield, RI, United States Lat: 41.917
Local Time: 9:45 PM EDT ( 1:45 GMT) Lon: -71.5
Time Zone: US/Eastern Elev: 439 ft

Show me the last for .
Show Decoded

2018-10-23 20:56 METAR KSFZ 240056Z AUTO 27004KT 10SM SCT070 OVC100 08/08 A2991 RMK AO2 SLP074
                 T00830078 =
2018-10-23 20:32 METAR KSFZ 240032Z AUTO 27005KT 10SM BKN075 BKN110 08/08 A2990 RMK AO2 =
2018-10-23 20:24 METAR KSFZ 240024Z AUTO 27005KT 2 1/2SM BR SCT075 08/08 A2990 RMK AO2 =
2018-10-23 20:06 METAR KSFZ 240006Z AUTO 29003KT 6SM BR FEW002 07/07 A2988 RMK AO2 =
2018-10-23 19:59 METAR KSFZ 232359Z AUTO 30004KT 2 1/2SM BR SCT002 07/07 A2989 RMK AO2 VIS 3/4V5
                 TSNO =
2018-10-23 19:56 METAR KSFZ 232356Z AUTO 31004KT 1SM BR VV002 08/08 A2989 RMK AO2 SLP070 60036
                 T00780078 10111 20061 53003 TSNO =
2018-10-23 19:53 METAR KSFZ 232353Z AUTO 31003KT 3/4SM BR VV002 07/07 A2989 RMK AO2 =
2018-10-23 19:35 METAR KSFZ 232335Z AUTO 00000KT 1/4SM FG VV002 07/06 A2989 RMK AO2 LTG DSNT NE =
2018-10-23 19:23 METAR KSFZ 232323Z AUTO 00000KT 3/4SM BR VV002 08/07 A2989 RMK AO2 VIS 1/4V2 =
2018-10-23 19:16 METAR KSFZ 232316Z AUTO 00000KT 3/4SM BR CLR 08/08 A2989 RMK AO2 VIS 1/4V5 LTG
                 DSNT NE =
2018-10-23 19:08 METAR KSFZ 232308Z AUTO 00000KT 1 3/4SM BR CLR 08/08 A2989 RMK AO2 VIS 3/4V5 LTG
                 DSNT NE =
2018-10-23 18:56 METAR KSFZ 232256Z AUTO 00000KT 9SM FEW002 09/09 A2989 RMK AO2 TSB02E44 SLP069
                 T00890089 =
2018-10-23 18:40 METAR KSFZ 232240Z AUTO VRB05G14KT 3SM VCTS BR SCT004 SCT100 09/09 A2989 RMK AO2
                 LTG DSNT NE TSB02 =
2018-10-23 18:08 METAR KSFZ 232208Z AUTO 00000KT 6SM VCTS BR FEW034 09/09 A2987 RMK AO2 LTG DSNT
                 N AND NW TSB02 =
2018-10-23 17:56 METAR KSFZ 232156Z AUTO 13004KT 7SM CLR 09/09 A2988 RMK AO2 LTG DSNT N AND NW
                 SLP066 T00940089 =
2018-10-23 17:04 METAR KSFZ 232104Z AUTO 12006KT 10SM SCT022 BKN100 11/10 A2988 RMK AO2 LTG DSNT
                 SE AND W AND NW =
2018-10-23 16:56 METAR KSFZ 232056Z AUTO 13006KT 10SM BKN022 BKN026 BKN100 11/10 A2988 RMK AO2
                 LTG DSNT W TSE07 SLP067 60036 T01110100 57035 =
2018-10-23 16:20 METAR KSFZ 232020Z AUTO 11005KT 10SM BKN022 BKN031 OVC085 11/11 A2991 RMK AO2
                 LTG DSNT NE AND E TSE07 =
2018-10-23 16:13 METAR KSFZ 232013Z AUTO 10005KT 10SM SCT024 BKN037 OVC085 11/11 A2991 RMK AO2
                 LTG DSNT NE AND E TSE07 =
2018-10-23 15:56 METAR KSFZ 231956Z AUTO 07005KT 10SM VCTS SCT014 BKN034 OVC080 11/10 A2992 RMK
                 AO2 TSB20RAE54 SLP079 P0026 T01110100 =
2018-10-23 15:49 METAR KSFZ 231949Z AUTO 03004KT 9SM VCTS -RA FEW009 BKN016 OVC042 11/10 A2992
                 RMK AO2 LTG DSNT SE AND S TSB20 P0026 =
2018-10-23 15:36 METAR KSFZ 231936Z AUTO VRB05KT 2 1/2SM +TSRA BR FEW005 OVC016 11/10 A2995 RMK
                 AO2 LTG DSNT S TSB20 P0024 =
2018-10-23 15:26 METAR KSFZ 231926Z AUTO 01007KT 8SM +TSRA BKN018 OVC030 11/10 A2993 RMK AO2
                 TSB20 P0005 =
2018-10-23 15:18 METAR KSFZ 231918Z AUTO 02007KT 6SM -RA BR BKN018 BKN025 OVC030 11/10 A2993 RMK
                 AO2 LTG DSNT S P0003 =
2018-10-23 14:56 METAR KSFZ 231856Z AUTO 00000KT 5SM -RA BR SCT023 SCT030 OVC050 11/10 A2995 RMK
                 AO2 LTG DSNT SW SLP091 P0010 T01060100 =
2018-10-23 14:29 METAR KSFZ 231829Z AUTO 00000KT 5SM +RA BR FEW018 BKN034 OVC044 11/09 A2997 RMK
                 AO2 P0007 =
2018-10-23 13:56 METAR KSFZ 231756Z AUTO 14005KT 3SM RA BR FEW018 BKN024 OVC048 11/09 A2999 RMK
                 AO2 TSB37E45B47E52RAE04B38 SLP103 P0008 60008 T01110094 10133 20061 58035 =
2018-10-23 13:52 METAR KSFZ 231752Z AUTO VRB03KT 2 1/2SM +RA BR BKN023 BKN034 OVC055 11/09 A2999
                 RMK AO2 VIS 1 1/4V5 TSB37E45B47E52RAE04B38 P0007 =
2018-10-23 13:47 METAR KSFZ 231747Z AUTO VRB06KT 5SM +TSRA BR SCT025 BKN047 OVC070 12/09 A3000
                 RMK AO2 TSB37E45B47RAE04B38 P0002 =
2018-10-23 13:43 METAR KSFZ 231743Z AUTO VRB06KT 9SM TSRA FEW023 BKN055 OVC070 12/09 A3000 RMK
                 AO2 TSB37RAE04B38 P0000 =
2018-10-23 12:56 METAR KSFZ 231656Z AUTO 14007G14KT 10SM -RA FEW022 BKN045 OVC055 13/09 A3002 RMK
                 AO2 RAB54 SLP115 P0000 T01280089 =
2018-10-23 11:56 METAR KSFZ 231556Z AUTO VRB03KT 10SM BKN020 OVC027 12/08 A3007 RMK AO2 SLP130
                 T01220083 =
2018-10-23 10:56 METAR KSFZ 231456Z AUTO 15005KT 10SM BKN028 OVC090 12/07 A3009 RMK AO2 SLP138
                 T01170067 56007 =
2018-10-23 10:54 METAR KSFZ 231454Z AUTO 18004KT 10SM FEW024 BKN028 OVC090 12/07 A3009 RMK AO2 =
2018-10-23 09:56 METAR KSFZ 231356Z AUTO 14005KT 10SM OVC110 09/06 A3010 RMK AO2 SLP142 T00940056
                 =
2018-10-23 08:56 METAR KSFZ 231256Z AUTO 13006KT 10SM OVC100 08/05 A3011 RMK AO2 SLP145 T00780050
                 =
2018-10-23 07:56 METAR KSFZ 231156Z AUTO 14005KT 10SM OVC100 06/04 A3012 RMK AO2 SLP148 T00610044
                 10067 20033 56008 =
2018-10-23 06:56 METAR KSFZ 231056Z AUTO 00000KT 10SM OVC095 06/04 A3012 RMK AO2 SLP149 T00610039
                 =
2018-10-23 05:56 METAR KSFZ 230956Z AUTO 00000KT 10SM OVC090 06/03 A3014 RMK AO2 SLP154 T00560028
                 =
2018-10-23 04:56 METAR KSFZ 230856Z AUTO 00000KT 10SM OVC090 04/02 A3014 RMK AO2 SLP156 T00390022
                 56008 =
2018-10-23 03:56 METAR KSFZ 230756Z AUTO 00000KT 10SM OVC080 04/02 A3015 RMK AO2 SLP157 T00390022
                 =
2018-10-23 02:56 METAR KSFZ 230656Z AUTO 00000KT 10SM OVC080 03/02 A3016 RMK AO2 SLP162 T00330017
                 =
2018-10-23 01:56 METAR KSFZ 230556Z AUTO 00000KT 10SM OVC080 04/02 A3017 RMK AO2 SLP165 T00390017
                 10056 20017 58007 =
2018-10-23 00:56 METAR KSFZ 230456Z AUTO 00000KT 10SM OVC085 02/01 A3018 RMK AO2 SLP168 T00220006
                 401001050 FZRANO =
2018-10-22 23:56 METAR KSFZ 230356Z AUTO 00000KT 10SM BKN090 03/00 A3018 RMK AO2 SLP169 T00330000
                 =
2018-10-22 22:56 METAR KSFZ 230256Z AUTO 00000KT 10SM BKN090 03/01 A3019 RMK AO2 SLP171 T00280006
                 51003 =
2018-10-22 21:56 METAR KSFZ 230156Z AUTO 00000KT 10SM FEW095 03/00 A3019 RMK AO2 SLP171 T00280000
                 =

Support USWX by starting your Amazon purchase here.